createdAt,value
2022-11-11T00:01:24.691Z,102061.06
2022-11-11T00:04:59.166Z,102064.56
2022-11-11T00:08:20.712Z,102054.81
2022-11-11T00:11:54.308Z,102017.53
2022-11-11T00:15:09.740Z,102069.84
2022-11-11T00:18:41.669Z,102068.00
2022-11-11T00:22:14.014Z,102026.19
2022-11-11T00:25:30.958Z,101997.75
2022-11-11T00:28:51.633Z,102091.66
2022-11-11T00:35:33.751Z,102088.00
2022-11-11T00:38:52.415Z,102083.53
2022-11-11T00:42:13.938Z,102096.72
2022-11-11T00:45:41.375Z,102100.03
2022-11-11T00:48:58.631Z,102060.84
2022-11-11T00:52:04.668Z,102100.78
2022-11-11T00:55:26.653Z,102097.13
2022-11-11T00:58:35.334Z,102105.94
2022-11-11T01:02:01.552Z,102107.59
2022-11-11T01:05:12.892Z,102100.53
2022-11-11T01:08:38.599Z,102099.75
2022-11-11T01:11:49.215Z,102095.38
2022-11-11T01:15:01.916Z,102095.41
2022-11-11T01:18:31.753Z,102095.38
2022-11-11T01:21:51.758Z,102091.09
2022-11-11T01:25:07.267Z,102034.16
2022-11-11T01:28:32.362Z,102071.31
2022-11-11T01:31:48.341Z,102110.19
2022-11-11T01:35:02.585Z,102114.81
2022-11-11T01:38:22.677Z,102105.19
2022-11-11T01:41:32.025Z,102021.84
2022-11-11T01:45:26.711Z,102113.09
2022-11-11T01:48:51.221Z,102102.34
2022-11-11T01:52:32.783Z,102104.84
2022-11-11T01:56:16.586Z,102104.78
2022-11-11T01:59:31.994Z,102093.28
2022-11-11T02:07:04.681Z,102106.44
2022-11-11T02:10:11.522Z,102101.94
2022-11-11T02:17:26.863Z,102103.41
2022-11-11T02:20:44.487Z,102105.16
2022-11-11T02:24:44.462Z,102112.34
2022-11-11T02:28:06.657Z,102110.63
2022-11-11T02:31:19.451Z,102114.19
2022-11-11T02:34:38.888Z,102117.56
2022-11-11T02:37:54.754Z,102112.19
2022-11-11T02:41:02.716Z,102078.47
2022-11-11T02:44:42.498Z,102032.19
2022-11-11T02:47:48.432Z,102132.25
2022-11-11T02:51:06.709Z,102119.62
2022-11-11T02:54:46.936Z,102135.72
2022-11-11T02:57:58.164Z,102133.09
2022-11-11T03:01:08.822Z,102142.63
2022-11-11T03:04:31.121Z,102148.91
2022-11-11T03:07:49.398Z,102097.63
2022-11-11T03:11:06.826Z,102107.50
2022-11-11T03:14:34.626Z,102154.63
2022-11-11T03:17:46.860Z,102159.06
2022-11-11T03:21:01.150Z,102085.34
2022-11-11T03:24:30.630Z,102164.44
2022-11-11T03:27:44.645Z,102159.97
2022-11-11T03:31:08.583Z,102179.37
2022-11-11T03:34:29.135Z,102168.78
2022-11-11T03:37:51.637Z,102121.69
2022-11-11T03:40:59.435Z,102158.06
2022-11-11T03:44:32.645Z,102181.09
2022-11-11T03:47:46.595Z,102182.03
2022-11-11T03:50:55.706Z,102130.44
2022-11-11T03:54:35.061Z,102127.47
2022-11-11T03:57:56.658Z,102190.28
2022-11-11T04:01:01.227Z,102126.03
2022-11-11T04:04:35.725Z,102177.50
2022-11-11T04:07:37.457Z,102179.16
2022-11-11T04:10:55.752Z,102152.28
2022-11-11T04:14:39.714Z,102189.72
2022-11-11T04:17:55.448Z,102189.56
2022-11-11T04:21:12.567Z,102105.88
2022-11-11T04:24:36.397Z,102173.41
2022-11-11T04:27:38.517Z,102186.19
2022-11-11T04:30:53.620Z,102195.81
2022-11-11T04:34:33.347Z,102203.72
2022-11-11T04:37:57.697Z,102198.53
2022-11-11T04:41:02.510Z,102116.53
2022-11-11T04:44:29.626Z,102160.16
2022-11-11T04:47:37.691Z,102190.41
2022-11-11T04:50:51.713Z,102191.97
2022-11-11T04:54:35.804Z,102135.75
2022-11-11T04:57:47.074Z,102217.50
2022-11-11T05:01:04.701Z,102184.22
2022-11-11T05:04:28.715Z,102224.13
2022-11-11T05:07:46.667Z,102196.44
2022-11-11T05:10:48.379Z,102174.22
2022-11-11T05:14:48.056Z,102222.22
2022-11-11T05:17:53.906Z,102174.06
2022-11-11T05:21:24.717Z,102223.97
2022-11-11T05:24:31.181Z,102226.50
2022-11-11T05:27:50.494Z,102222.03
2022-11-11T05:31:02.582Z,102222.84
2022-11-11T05:34:40.771Z,102225.47
2022-11-11T05:37:47.820Z,102149.72
2022-11-11T05:41:09.972Z,102195.06
2022-11-11T05:44:58.716Z,102230.78
2022-11-11T05:48:16.627Z,102156.94
2022-11-11T05:51:44.803Z,102248.38
2022-11-11T05:55:02.486Z,102245.62
2022-11-11T06:17:43.774Z,102261.75
2022-11-11T06:21:36.774Z,102273.25
2022-11-11T06:28:08.240Z,102273.41
2022-11-11T06:34:59.729Z,102284.91
2022-11-11T06:38:09.339Z,102294.75
2022-11-11T06:45:38.946Z,102302.88
2022-11-11T06:49:01.729Z,102292.44
2022-11-11T06:52:19.799Z,102283.78
2022-11-11T06:56:30.682Z,102281.25
2022-11-11T07:07:24.885Z,102301.44
2022-11-11T07:10:40.552Z,102324.63
2022-11-11T07:14:54.898Z,102333.59
2022-11-11T07:18:49.022Z,102326.62
2022-11-11T07:38:05.358Z,102364.09
2022-11-11T07:48:55.261Z,102379.69
2022-11-11T08:08:21.462Z,102337.59
2022-11-11T08:15:24.472Z,102378.66
2022-11-11T08:26:48.427Z,102385.87
2022-11-11T08:38:17.954Z,102384.09
2022-11-11T08:41:28.703Z,102380.56
2022-11-11T08:45:09.414Z,102378.78
2022-11-11T09:41:33.975Z,102377.88
2022-11-11T10:06:00.430Z,102382.06
2022-11-11T10:09:42.722Z,102373.06
2022-11-11T12:07:18.311Z,102318.66
2022-11-11T12:30:38.309Z,102306.03
2022-11-11T12:34:57.365Z,102316.78
2022-11-11T12:38:47.683Z,102324.75
2022-11-11T12:51:11.867Z,102304.97
2022-11-11T12:55:35.109Z,102289.69
2022-11-11T12:59:42.470Z,102299.34
2022-11-11T13:15:41.058Z,102286.44
2022-11-11T14:57:05.108Z,102231.84
2022-11-11T15:08:02.936Z,102242.66
2022-11-11T15:11:40.731Z,102243.56
2022-11-11T15:15:04.011Z,102237.41
2022-11-11T15:18:39.862Z,102247.19
2022-11-11T15:21:53.503Z,102245.44
2022-11-11T15:25:41.194Z,102249.94
2022-11-11T15:29:04.140Z,102236.63
2022-11-11T15:36:22.747Z,102249.06
2022-11-11T15:40:31.845Z,102246.41
2022-11-11T15:43:41.922Z,102249.12
2022-11-11T15:47:00.824Z,102258.91
2022-11-11T15:50:03.324Z,102258.88
2022-11-11T15:53:20.154Z,102261.56
2022-11-11T16:12:21.877Z,102144.44
2022-11-11T16:22:42.874Z,102273.06
2022-11-11T19:25:28.014Z,102205.41
2022-11-11T20:57:39.925Z,102180.50
2022-11-11T21:34:19.917Z,102235.25
2022-11-11T21:38:26.229Z,102236.06
2022-11-11T21:46:08.939Z,102242.94
2022-11-11T21:54:02.493Z,102204.72
2022-11-11T21:57:36.062Z,102208.19
2022-11-11T22:05:15.998Z,102216.06
2022-11-11T22:17:03.245Z,102210.78
2022-11-11T22:24:39.971Z,102222.03
2022-11-11T22:28:14.920Z,102201.75
2022-11-11T22:32:28.746Z,102203.66
2022-11-11T22:44:31.107Z,102209.87
2022-11-11T22:59:50.903Z,102209.03
2022-11-11T23:25:45.972Z,102180.19
2022-11-11T23:29:42.270Z,102165.16
2022-11-11T23:33:21.412Z,102166.94
2022-11-11T23:36:55.926Z,102162.47
2022-11-11T23:40:18.088Z,102160.75
2022-11-11T23:43:36.955Z,102167.75
2022-11-11T23:47:25.459Z,102163.44
2022-11-11T23:54:53.266Z,102159.06
2022-11-11T23:58:36.673Z,102152.84
